createdAt,value
2022-09-18T00:01:31.608Z,97468.06
2022-09-18T00:03:59.354Z,97463.69
2022-09-18T00:06:27.467Z,97456.59
2022-09-18T00:08:54.717Z,97468.81
2022-09-18T00:11:22.329Z,97467.75
2022-09-18T00:13:49.417Z,97466.69
2022-09-18T00:16:17.121Z,97465.25
2022-09-18T00:18:43.764Z,97467.50
2022-09-18T00:21:11.884Z,97471.00
2022-09-18T00:23:38.821Z,97466.69
2022-09-18T00:26:05.415Z,97456.94
2022-09-18T00:28:32.469Z,97460.53
2022-09-18T00:31:06.073Z,97463.13
2022-09-18T00:33:32.695Z,97440.31
2022-09-18T00:36:03.240Z,97460.59
2022-09-18T00:38:31.814Z,97456.94
2022-09-18T00:41:02.133Z,97464.59
2022-09-18T00:43:29.651Z,97459.19
2022-09-18T00:45:58.046Z,97466.03
2022-09-18T00:48:27.937Z,97459.63
2022-09-18T00:50:54.248Z,97467.22
2022-09-18T00:53:20.780Z,97468.19
2022-09-18T00:55:47.225Z,97467.41
2022-09-18T00:58:13.727Z,97467.41
2022-09-18T01:00:40.244Z,97467.75
2022-09-18T01:03:06.589Z,97460.88
2022-09-18T01:06:00.479Z,97464.16
2022-09-18T01:08:32.689Z,97457.97
2022-09-18T01:11:19.343Z,97462.41
2022-09-18T01:13:54.205Z,97459.53
2022-09-18T01:16:45.825Z,97459.19
2022-09-18T01:19:31.468Z,97458.84
2022-09-18T01:22:04.972Z,97461.09
2022-09-18T01:24:33.066Z,97450.63
2022-09-18T01:27:02.747Z,97452.44
2022-09-18T01:29:29.426Z,97457.19
2022-09-18T01:31:59.025Z,97462.25
2022-09-18T01:34:28.908Z,97470.66
2022-09-18T01:37:01.043Z,97470.25
2022-09-18T01:39:39.771Z,97467.41
2022-09-18T01:42:07.221Z,97480.06
2022-09-18T01:44:34.683Z,97472.13
2022-09-18T01:47:04.063Z,97464.53
2022-09-18T01:49:33.758Z,97469.28
2022-09-18T01:52:06.722Z,97468.53
2022-09-18T01:54:34.237Z,97480.81
2022-09-18T01:57:07.542Z,97475.75
2022-09-18T01:59:36.889Z,97481.88
2022-09-18T02:02:05.078Z,97471.72
2022-09-18T02:04:33.132Z,97479.63
2022-09-18T02:07:18.005Z,97476.34
2022-09-18T02:09:44.627Z,97475.25
2022-09-18T02:12:12.731Z,97481.06
2022-09-18T02:14:40.612Z,97475.97
2022-09-18T02:17:09.485Z,97479.91
2022-09-18T02:19:38.229Z,97485.63
2022-09-18T02:22:09.608Z,97476.59
2022-09-18T02:24:37.572Z,97466.69
2022-09-18T02:27:05.865Z,97480.34
2022-09-18T02:29:32.519Z,97476.56
2022-09-18T02:31:59.720Z,97472.13
2022-09-18T02:34:26.753Z,97480.47
2022-09-18T02:36:59.332Z,97481.84
2022-09-18T02:39:33.965Z,97487.97
2022-09-18T02:42:03.426Z,97477.50
2022-09-18T02:44:48.501Z,97480.00
2022-09-18T02:47:28.457Z,97486.59
2022-09-18T02:49:54.895Z,97479.41
2022-09-18T02:52:26.823Z,97488.38
2022-09-18T02:54:55.633Z,97488.06
2022-09-18T02:57:28.107Z,97481.94
2022-09-18T02:59:56.905Z,97487.75
2022-09-18T03:02:24.004Z,97482.44
2022-09-18T03:04:50.532Z,97486.44
2022-09-18T03:07:17.483Z,97489.63
2022-09-18T03:09:43.826Z,97488.56
2022-09-18T03:12:10.398Z,97486.69
2022-09-18T03:14:36.806Z,97485.63
2022-09-18T03:17:03.633Z,97492.91
2022-09-18T03:19:30.154Z,97500.84
2022-09-18T03:21:56.635Z,97504.75
2022-09-18T03:24:25.426Z,97516.34
2022-09-18T03:26:52.081Z,97497.16
2022-09-18T03:29:18.418Z,97508.75
2022-09-18T03:31:44.828Z,97514.13
2022-09-18T03:34:11.262Z,97503.59
2022-09-18T03:36:37.768Z,97504.66
2022-09-18T03:39:04.722Z,97522.38
2022-09-18T03:41:31.206Z,97529.97
2022-09-18T03:43:57.742Z,97533.56
2022-09-18T03:46:24.227Z,97530.28
2022-09-18T03:48:51.311Z,97540.41
2022-09-18T03:51:19.019Z,97544.00
2022-09-18T03:53:45.999Z,97538.84
2022-09-18T03:56:13.484Z,97538.84
2022-09-18T03:58:40.040Z,97537.72
2022-09-18T04:01:07.103Z,97543.19
2022-09-18T04:03:34.338Z,97547.50
2022-09-18T04:06:00.745Z,97534.09
2022-09-18T04:08:27.134Z,97542.38
2022-09-18T04:10:53.478Z,97552.50
2022-09-18T04:13:19.828Z,97561.91
2022-09-18T04:15:49.911Z,97567.97
2022-09-18T04:18:17.084Z,97564.72
2022-09-18T04:20:43.749Z,97565.38
2022-09-18T04:23:12.569Z,97568.97
2022-09-18T04:25:39.967Z,97575.09
2022-09-18T04:28:06.543Z,97558.78
2022-09-18T04:30:32.998Z,97583.38
2022-09-18T04:32:59.348Z,97568.84
2022-09-18T04:35:25.998Z,97578.97
2022-09-18T04:37:52.278Z,97580.09
2022-09-18T04:40:18.777Z,97577.91
2022-09-18T04:42:45.118Z,97583.72
2022-09-18T04:45:11.621Z,97599.31
2022-09-18T04:47:37.932Z,97598.56
2022-09-18T04:50:04.972Z,97592.75
2022-09-18T04:52:31.358Z,97598.56
2022-09-18T04:54:57.658Z,97585.91
2022-09-18T04:57:24.012Z,97613.41
2022-09-18T04:59:50.439Z,97604.38
2022-09-18T05:02:18.265Z,97611.56
2022-09-18T05:04:44.758Z,97618.75
2022-09-18T05:07:11.087Z,97621.28
2022-09-18T05:09:37.534Z,97622.75
2022-09-18T05:12:03.939Z,97626.03
2022-09-18T05:14:30.261Z,97625.63
2022-09-18T05:16:56.664Z,97635.31
2022-09-18T05:19:23.368Z,97629.94
2022-09-18T05:21:50.449Z,97635.31
2022-09-18T05:24:17.615Z,97638.19
2022-09-18T05:26:44.820Z,97640.72
2022-09-18T05:29:11.459Z,97640.72
2022-09-18T05:31:37.993Z,97645.03
2022-09-18T05:34:04.464Z,97654.09
2022-09-18T05:36:30.858Z,97649.78
2022-09-18T05:38:57.247Z,97646.19
2022-09-18T05:41:23.579Z,97655.25
2022-09-18T05:43:50.026Z,97669.06
2022-09-18T05:46:16.346Z,97657.88
2022-09-18T05:48:43.207Z,97666.84
2022-09-18T05:51:09.502Z,97666.84
2022-09-18T05:53:35.805Z,97664.66
2022-09-18T05:56:02.236Z,97668.66
2022-09-18T05:58:28.540Z,97673.41
2022-09-18T06:00:58.796Z,97666.84
2022-09-18T06:03:25.226Z,97670.53
2022-09-18T06:05:52.333Z,97679.09
2022-09-18T06:08:18.743Z,97682.38
2022-09-18T06:10:45.042Z,97693.22
2022-09-18T06:13:13.213Z,97680.56
2022-09-18T06:15:39.761Z,97699.34
2022-09-18T06:18:09.629Z,97699.78
2022-09-18T06:20:36.202Z,97693.22
2022-09-18T06:23:02.700Z,97692.06
2022-09-18T06:25:29.786Z,97698.94
2022-09-18T06:27:58.649Z,97704.00
2022-09-18T06:30:26.205Z,97698.94
2022-09-18T06:32:52.642Z,97704.41
2022-09-18T06:35:18.918Z,97705.47
2022-09-18T06:37:45.291Z,97717.06
2022-09-18T06:40:12.019Z,97714.66
2022-09-18T06:42:41.616Z,97714.69
2022-09-18T06:45:10.549Z,97716.31
2022-09-18T06:47:37.050Z,97714.84
2022-09-18T06:50:03.778Z,97717.47
2022-09-18T06:52:31.542Z,97722.28
2022-09-18T06:54:57.859Z,97718.34
2022-09-18T06:57:24.226Z,97720.63
2022-09-18T06:59:50.537Z,97723.97
2022-09-18T07:02:19.579Z,97733.88
2022-09-18T07:04:46.959Z,97723.47
2022-09-18T07:07:13.258Z,97729.41
2022-09-18T07:09:39.576Z,97728.66
2022-09-18T07:12:05.952Z,97723.25
2022-09-18T07:14:32.305Z,97728.06
2022-09-18T07:16:58.585Z,97735.03
2022-09-18T07:19:24.876Z,97724.97
2022-09-18T07:21:51.737Z,97738.44
2022-09-18T07:24:18.037Z,97730.81
2022-09-18T07:26:44.296Z,97734.53
2022-09-18T07:29:10.564Z,97735.78
2022-09-18T07:31:37.044Z,97729.38
2022-09-18T07:34:03.402Z,97736.34
2022-09-18T07:36:29.704Z,97741.03
2022-09-18T07:38:56.162Z,97744.78
2022-09-18T07:41:22.418Z,97748.06
2022-09-18T07:43:49.818Z,97745.09
2022-09-18T07:46:16.093Z,97745.78
2022-09-18T07:48:42.417Z,97750.19
2022-09-18T07:51:08.797Z,97745.56
2022-09-18T07:53:37.456Z,97743.09
2022-09-18T07:56:07.913Z,97736.63
2022-09-18T07:58:34.213Z,97755.19
2022-09-18T08:01:02.423Z,97743.25
2022-09-18T08:03:28.932Z,97751.22
2022-09-18T08:05:55.655Z,97755.63
2022-09-18T08:08:21.968Z,97748.84
2022-09-18T08:10:48.303Z,97750.22
2022-09-18T08:13:14.617Z,97743.25
2022-09-18T08:15:41.808Z,97747.97
2022-09-18T08:18:08.699Z,97754.97
2022-09-18T08:20:35.135Z,97753.59
2022-09-18T08:23:05.423Z,97758.44
2022-09-18T08:25:31.977Z,97754.50
2022-09-18T08:27:58.997Z,97760.34
2022-09-18T08:30:25.276Z,97745.72
2022-09-18T08:32:51.548Z,97752.38
2022-09-18T08:35:17.885Z,97750.31
2022-09-18T08:37:48.508Z,97740.41
2022-09-18T08:40:16.255Z,97736.03
2022-09-18T08:42:57.544Z,97737.34
2022-09-18T08:45:29.855Z,97745.84
2022-09-18T08:47:58.389Z,97742.59
2022-09-18T08:50:29.222Z,97738.94
2022-09-18T08:53:02.123Z,97735.91
2022-09-18T08:55:31.107Z,97737.69
2022-09-18T08:58:03.115Z,97740.13
2022-09-18T09:00:43.055Z,97741.72
2022-09-18T09:03:24.942Z,97754.31
2022-09-18T09:05:58.730Z,97739.44
2022-09-18T09:08:25.067Z,97748.25
2022-09-18T09:10:57.461Z,97731.09
2022-09-18T09:13:26.996Z,97740.69
2022-09-18T09:15:53.535Z,97754.22
2022-09-18T09:18:46.415Z,97751.34
2022-09-18T09:21:22.290Z,97754.44
2022-09-18T09:23:48.798Z,97748.88
2022-09-18T09:26:17.615Z,97755.06
2022-09-18T09:28:47.006Z,97753.47
2022-09-18T09:31:14.080Z,97747.19
2022-09-18T09:33:49.427Z,97756.72
2022-09-18T09:36:16.827Z,97751.38
2022-09-18T09:38:58.384Z,97742.63
2022-09-18T09:41:34.706Z,97750.41
2022-09-18T09:44:21.285Z,97744.09
2022-09-18T09:46:55.883Z,97744.03
2022-09-18T09:49:29.652Z,97748.34
2022-09-18T09:52:09.150Z,97734.91
2022-09-18T09:54:35.977Z,97744.03
2022-09-18T09:57:15.501Z,97744.84
2022-09-18T09:59:44.765Z,97738.84
2022-09-18T10:02:11.086Z,97738.56
2022-09-18T10:04:41.090Z,97727.34
2022-09-18T10:07:13.179Z,97719.72
2022-09-18T10:10:05.873Z,97716.91
2022-09-18T10:12:36.600Z,97721.59
2022-09-18T10:15:11.825Z,97731.75
2022-09-18T10:17:39.896Z,97750.59
2022-09-18T10:20:06.856Z,97746.00
2022-09-18T10:22:33.524Z,97754.41
2022-09-18T10:25:13.252Z,97748.97
2022-09-18T10:27:39.514Z,97754.63
2022-09-18T10:30:14.939Z,97749.41
2022-09-18T10:32:41.800Z,97736.38
2022-09-18T10:35:23.407Z,97744.41
2022-09-18T10:37:49.783Z,97736.38
2022-09-18T10:40:40.113Z,97730.59
2022-09-18T10:43:07.287Z,97726.19
2022-09-18T10:45:37.997Z,97729.44
2022-09-18T10:48:07.657Z,97729.81
2022-09-18T10:50:34.638Z,97727.28
2022-09-18T10:53:19.831Z,97721.09
2022-09-18T10:55:53.882Z,97720.00
2022-09-18T10:58:26.609Z,97722.22
2022-09-18T11:01:05.489Z,97723.19
2022-09-18T11:03:42.674Z,97722.78
2022-09-18T11:06:14.533Z,97718.00
2022-09-18T11:08:42.635Z,97716.31
2022-09-18T11:11:12.265Z,97717.38
2022-09-18T11:13:42.838Z,97716.34
2022-09-18T11:16:09.155Z,97713.44
2022-09-18T11:18:35.642Z,97713.41
2022-09-18T11:21:04.064Z,97725.09
2022-09-18T11:23:31.569Z,97755.91
2022-09-18T11:26:11.898Z,97772.84
2022-09-18T11:28:38.730Z,97774.69
2022-09-18T11:31:14.687Z,97757.38
2022-09-18T11:33:50.664Z,97749.97
2022-09-18T11:36:23.083Z,97754.75
2022-09-18T11:38:49.634Z,97751.81
2022-09-18T11:41:26.302Z,97745.28
2022-09-18T11:44:00.848Z,97732.97
2022-09-18T11:46:46.066Z,97737.69
2022-09-18T11:49:17.524Z,97727.28
2022-09-18T11:51:55.729Z,97725.84
2022-09-18T11:54:26.241Z,97726.16
2022-09-18T11:56:54.730Z,97715.47
2022-09-18T11:59:25.531Z,97713.69
2022-09-18T12:01:54.145Z,97701.19
2022-09-18T12:04:35.599Z,97699.84
2022-09-18T12:07:14.258Z,97674.00
2022-09-18T12:09:53.932Z,97679.88
2022-09-18T12:12:22.378Z,97679.44
2022-09-18T12:14:56.949Z,97670.78
2022-09-18T12:17:43.410Z,97673.66
2022-09-18T12:20:17.568Z,97679.50
2022-09-18T12:22:57.587Z,97687.44
2022-09-18T12:25:28.718Z,97694.41
2022-09-18T12:28:01.296Z,97712.72
2022-09-18T12:30:36.454Z,97706.81
2022-09-18T12:33:21.339Z,97699.72
2022-09-18T12:35:50.697Z,97698.00
2022-09-18T12:38:30.521Z,97693.88
2022-09-18T12:41:01.439Z,97689.34
2022-09-18T12:43:50.690Z,97685.06
2022-09-18T12:46:20.176Z,97689.56
2022-09-18T12:49:05.335Z,97675.06
2022-09-18T12:51:36.203Z,97672.88
2022-09-18T12:54:16.913Z,97671.38
2022-09-18T12:56:49.125Z,97661.97
2022-09-18T12:59:41.730Z,97655.81
2022-09-18T13:02:14.216Z,97652.53
2022-09-18T13:04:43.480Z,97649.59
2022-09-18T13:07:17.975Z,97646.28
2022-09-18T13:09:50.121Z,97659.44
2022-09-18T13:12:19.720Z,97676.16
2022-09-18T13:14:48.897Z,97675.78
2022-09-18T13:17:18.338Z,97669.84
2022-09-18T13:19:47.971Z,97670.16
2022-09-18T13:22:16.403Z,97664.75
2022-09-18T13:24:43.790Z,97640.00
2022-09-18T13:27:12.420Z,97646.88
2022-09-18T13:29:49.026Z,97651.66
2022-09-18T13:32:17.490Z,97649.44
2022-09-18T13:34:54.067Z,97635.66
2022-09-18T13:37:22.839Z,97643.66
2022-09-18T13:40:12.020Z,97649.88
2022-09-18T13:42:39.555Z,97646.19
2022-09-18T13:45:13.272Z,97640.34
2022-09-18T13:47:58.236Z,97640.03
2022-09-18T13:50:24.519Z,97639.34
2022-09-18T13:52:54.223Z,97645.53
2022-09-18T13:55:21.996Z,97636.41
2022-09-18T13:57:48.672Z,97638.56
2022-09-18T14:00:20.957Z,97633.13
2022-09-18T14:02:48.495Z,97640.03
2022-09-18T14:05:29.911Z,97642.91
2022-09-18T14:07:57.803Z,97639.22
2022-09-18T14:10:26.464Z,97659.03
2022-09-18T14:13:07.212Z,97668.28
2022-09-18T14:15:33.993Z,97667.69
2022-09-18T14:18:06.855Z,97662.34
2022-09-18T14:20:33.518Z,97677.75
2022-09-18T14:23:18.727Z,97666.41
2022-09-18T14:25:46.445Z,97664.50
2022-09-18T14:28:14.585Z,97669.25
2022-09-18T14:30:40.930Z,97673.94
2022-09-18T14:33:17.914Z,97671.66
2022-09-18T14:36:14.909Z,97669.38
2022-09-18T14:38:41.388Z,97664.66
2022-09-18T14:41:18.977Z,97673.44
2022-09-18T14:43:48.590Z,97658.91
2022-09-18T14:46:17.691Z,97663.91
2022-09-18T14:48:43.948Z,97659.34
2022-09-18T14:51:24.225Z,97662.81
2022-09-18T14:53:53.810Z,97655.66
2022-09-18T14:56:23.918Z,97658.22
2022-09-18T14:58:50.692Z,97658.84
2022-09-18T15:01:19.370Z,97665.56
2022-09-18T15:03:47.332Z,97668.88
2022-09-18T15:06:21.036Z,97676.88
2022-09-18T15:08:48.368Z,97670.97
2022-09-18T15:11:16.418Z,97676.72
2022-09-18T15:13:42.950Z,97675.50
2022-09-18T15:16:20.200Z,97665.75
2022-09-18T15:18:47.139Z,97670.16
2022-09-18T15:21:21.446Z,97670.56
2022-09-18T15:23:47.741Z,97668.91
2022-09-18T15:26:15.624Z,97658.44
2022-09-18T15:28:43.133Z,97677.91
2022-09-18T15:31:10.632Z,97667.84
2022-09-18T15:33:40.132Z,97662.84
2022-09-18T15:36:06.689Z,97668.44
2022-09-18T15:38:38.416Z,97661.53
2022-09-18T15:41:20.579Z,97658.97
2022-09-18T15:43:46.921Z,97652.13
2022-09-18T15:46:33.622Z,97646.81
2022-09-18T15:49:03.020Z,97647.88
2022-09-18T15:51:32.975Z,97646.81
2022-09-18T15:54:12.159Z,97644.69
2022-09-18T15:56:50.313Z,97647.72
2022-09-18T15:59:19.292Z,97634.72
2022-09-18T16:01:46.567Z,97641.25
2022-09-18T16:04:28.212Z,97641.25
2022-09-18T16:07:06.319Z,97638.81
2022-09-18T16:09:33.545Z,97635.59
2022-09-18T16:12:00.448Z,97634.19
2022-09-18T16:14:46.295Z,97636.34
2022-09-18T16:17:33.791Z,97636.22
2022-09-18T16:20:23.122Z,97641.25
2022-09-18T16:22:50.541Z,97642.41
2022-09-18T16:25:21.586Z,97645.94
2022-09-18T16:27:49.773Z,97645.59
2022-09-18T16:30:16.067Z,97647.47
2022-09-18T16:32:42.543Z,97651.91
2022-09-18T16:35:12.697Z,97644.22
2022-09-18T16:37:40.820Z,97645.69
2022-09-18T16:40:17.588Z,97637.41
2022-09-18T16:42:44.199Z,97647.16
2022-09-18T16:45:11.329Z,97643.84
2022-09-18T16:47:43.061Z,97641.31
2022-09-18T16:50:09.532Z,97645.28
2022-09-18T16:52:36.226Z,97639.84
2022-09-18T16:55:02.576Z,97638.72
2022-09-18T16:57:29.372Z,97631.09
2022-09-18T16:59:57.210Z,97634.38
2022-09-18T17:02:26.068Z,97634.06
2022-09-18T17:04:52.565Z,97637.34
2022-09-18T17:07:19.000Z,97628.56
2022-09-18T17:09:45.273Z,97639.13
2022-09-18T17:12:11.586Z,97638.06
2022-09-18T17:14:37.850Z,97636.59
2022-09-18T17:17:05.944Z,97634.78
2022-09-18T17:19:32.529Z,97643.47
2022-09-18T17:21:58.844Z,97643.38
2022-09-18T17:24:27.605Z,97636.50
2022-09-18T17:26:54.134Z,97640.84
2022-09-18T17:29:20.996Z,97641.59
2022-09-18T17:31:47.356Z,97628.66
2022-09-18T17:34:16.484Z,97632.56
2022-09-18T17:36:42.786Z,97639.44
2022-09-18T17:39:09.246Z,97639.84
2022-09-18T17:41:35.611Z,97641.00
2022-09-18T17:44:02.054Z,97638.31
2022-09-18T17:46:28.549Z,97644.19
2022-09-18T17:48:56.505Z,97643.66
2022-09-18T17:51:27.655Z,97637.44
2022-09-18T17:53:59.358Z,97644.03
2022-09-18T17:56:29.851Z,97640.63
2022-09-18T17:58:59.632Z,97635.47
2022-09-18T18:01:27.154Z,97643.06
2022-09-18T18:03:54.373Z,97646.25
2022-09-18T18:06:21.848Z,97645.50
2022-09-18T18:08:48.399Z,97651.66
2022-09-18T18:11:16.127Z,97651.31
2022-09-18T18:13:43.872Z,97648.44
2022-09-18T18:16:11.711Z,97649.31
2022-09-18T18:18:38.434Z,97646.78
2022-09-18T18:21:05.298Z,97645.78
2022-09-18T18:23:31.846Z,97645.72
2022-09-18T18:26:05.142Z,97651.50
2022-09-18T18:28:32.050Z,97646.03
2022-09-18T18:31:03.686Z,97653.72
2022-09-18T18:33:31.120Z,97659.22
2022-09-18T18:36:06.803Z,97652.91
2022-09-18T18:38:33.056Z,97663.78
2022-09-18T18:41:03.580Z,97664.47
2022-09-18T18:43:30.576Z,97669.53
2022-09-18T18:45:57.124Z,97670.66
2022-09-18T18:48:24.016Z,97674.78
2022-09-18T18:50:50.305Z,97679.53
2022-09-18T18:53:17.560Z,97679.59
2022-09-18T18:55:48.277Z,97673.84
2022-09-18T18:58:15.682Z,97671.72
2022-09-18T19:00:42.104Z,97672.59
2022-09-18T19:03:08.458Z,97672.84
2022-09-18T19:05:36.049Z,97667.78
2022-09-18T19:08:03.133Z,97668.84
2022-09-18T19:10:29.504Z,97677.38
2022-09-18T19:12:57.359Z,97666.13
2022-09-18T19:15:27.270Z,97672.19
2022-09-18T19:17:56.321Z,97675.41
2022-09-18T19:20:22.927Z,97669.94
2022-09-18T19:22:56.641Z,97676.47
2022-09-18T19:25:24.309Z,97679.31
2022-09-18T19:27:53.697Z,97666.91
2022-09-18T19:30:19.950Z,97668.03
2022-09-18T19:32:46.298Z,97668.00
2022-09-18T19:35:12.571Z,97668.72
2022-09-18T19:37:38.915Z,97662.84
2022-09-18T19:40:05.425Z,97656.31
2022-09-18T19:42:31.939Z,97654.44
2022-09-18T19:45:01.655Z,97664.53
2022-09-18T19:47:30.287Z,97662.75
2022-09-18T19:49:57.677Z,97659.50
2022-09-18T19:52:24.996Z,97656.22
2022-09-18T19:54:52.203Z,97659.47
2022-09-18T19:57:19.780Z,97657.97
2022-09-18T19:59:47.001Z,97660.19
2022-09-18T20:02:13.976Z,97659.03
2022-09-18T20:04:41.053Z,97658.22
2022-09-18T20:07:08.425Z,97653.44
2022-09-18T20:09:34.756Z,97648.38
2022-09-18T20:12:01.827Z,97655.16
2022-09-18T20:14:28.302Z,97648.84
2022-09-18T20:16:55.467Z,97645.53
2022-09-18T20:19:22.828Z,97644.06
2022-09-18T20:21:50.330Z,97648.31
2022-09-18T20:24:17.134Z,97641.03
2022-09-18T20:26:43.478Z,97648.25
2022-09-18T20:29:12.944Z,97646.06
2022-09-18T20:31:42.200Z,97647.84
2022-09-18T20:34:10.910Z,97643.09
2022-09-18T20:36:37.519Z,97639.09
2022-09-18T20:39:03.943Z,97644.84
2022-09-18T20:41:30.250Z,97649.91
2022-09-18T20:44:05.503Z,97644.03
2022-09-18T20:46:35.261Z,97635.94
2022-09-18T20:49:03.699Z,97634.47
2022-09-18T20:51:32.706Z,97637.31
2022-09-18T20:53:59.065Z,97636.28
2022-09-18T20:56:26.751Z,97637.75
2022-09-18T20:58:53.360Z,97630.47
2022-09-18T21:01:21.044Z,97634.78
2022-09-18T21:03:49.308Z,97641.31
2022-09-18T21:06:22.774Z,97635.22
2022-09-18T21:08:49.800Z,97632.25
2022-09-18T21:11:17.306Z,97633.00
2022-09-18T21:13:44.575Z,97631.94
2022-09-18T21:16:10.981Z,97637.00
2022-09-18T21:18:39.272Z,97636.50
2022-09-18T21:21:07.115Z,97638.00
2022-09-18T21:23:52.195Z,97649.50
2022-09-18T21:26:20.631Z,97636.88
2022-09-18T21:28:54.574Z,97641.66
2022-09-18T21:31:21.492Z,97641.31
2022-09-18T21:33:48.322Z,97636.50
2022-09-18T21:36:14.985Z,97638.69
2022-09-18T21:38:42.143Z,97639.22
2022-09-18T21:41:10.006Z,97639.34
2022-09-18T21:43:38.108Z,97641.06
2022-09-18T21:46:05.346Z,97636.09
2022-09-18T21:48:32.439Z,97628.50
2022-09-18T21:51:02.960Z,97628.50
2022-09-18T21:53:30.102Z,97636.81
2022-09-18T21:56:03.078Z,97633.63
2022-09-18T21:58:29.669Z,97637.31
2022-09-18T22:00:55.981Z,97625.63
2022-09-18T22:03:22.608Z,97632.19
2022-09-18T22:05:49.106Z,97630.63
2022-09-18T22:08:16.414Z,97628.16
2022-09-18T22:10:42.684Z,97626.31
2022-09-18T22:13:08.934Z,97628.91
2022-09-18T22:15:35.251Z,97624.91
2022-09-18T22:18:01.534Z,97628.56
2022-09-18T22:20:28.501Z,97627.50
2022-09-18T22:22:54.944Z,97625.38
2022-09-18T22:25:21.292Z,97628.00
2022-09-18T22:27:47.846Z,97632.38
2022-09-18T22:30:14.158Z,97626.25
2022-09-18T22:32:41.301Z,97622.25
2022-09-18T22:35:08.004Z,97621.50
2022-09-18T22:37:34.320Z,97617.53
2022-09-18T22:40:00.749Z,97621.88
2022-09-18T22:42:27.045Z,97624.78
2022-09-18T22:44:53.625Z,97626.94
2022-09-18T22:47:19.916Z,97619.34
2022-09-18T22:49:46.343Z,97616.44
2022-09-18T22:52:12.599Z,97614.44
2022-09-18T22:54:38.910Z,97607.47
2022-09-18T22:57:05.578Z,97611.16
2022-09-18T22:59:31.856Z,97618.75
2022-09-18T23:01:59.807Z,97604.28
2022-09-18T23:04:27.877Z,97607.28
2022-09-18T23:06:54.678Z,97604.00
2022-09-18T23:09:20.998Z,97606.91
2022-09-18T23:11:48.109Z,97606.91
2022-09-18T23:14:15.867Z,97598.94
2022-09-18T23:16:42.216Z,97598.94
2022-09-18T23:19:12.996Z,97605.09
2022-09-18T23:21:39.630Z,97605.09
2022-09-18T23:24:09.130Z,97599.03
2022-09-18T23:26:37.895Z,97601.44
2022-09-18T23:29:07.197Z,97594.28
2022-09-18T23:31:35.429Z,97603.28
2022-09-18T23:34:03.856Z,97604.28
2022-09-18T23:36:35.799Z,97605.34
2022-09-18T23:39:06.784Z,97608.94
2022-09-18T23:41:38.007Z,97601.25
2022-09-18T23:44:05.517Z,97601.63
2022-09-18T23:46:33.744Z,97601.63
2022-09-18T23:49:00.318Z,97598.69
2022-09-18T23:51:28.187Z,97584.81
2022-09-18T23:53:55.254Z,97599.09
2022-09-18T23:56:23.476Z,97593.66
2022-09-18T23:58:57.369Z,97598.22
